Terminal Aerodrome Forecast
Issued by NWS

Home | Current Version | Previous Version | Text Only | Print | Product List | Glossary On
Versions: 1 2 3 4 5 6 7 8 9 10 11 12
000
FTUS45 KLKN 101120
TAFTPH
TAF
KTPH 101120Z 1012/1112 36007KT P6SM FEW050 BKN100
      TEMPO 1012/1014 BKN020
     FM102000 18010KT P6SM VCSH SCT050 OVC100
     FM110800 33006KT P6SM FEW050 SCT100=

USA.gov is the U.S. government's official web portal to all federal, state and local government web resources and services.